Terminal Aerodrome Forecast
Issued by NWS

Home | Current Version | Previous Version | Text Only | Print | Product List | Glossary On
Versions: 1 2 3 4 5 6 7 8 9 10 11 12 13 14 15 16 17 18 19 20 21 22 23 24 25 26 27 28 29 30 31 32 33 34 35 36 37 38 39 40 41 42 43 44 45 46
152
FTUS43 KDDC 241120
TAFGCK
TAF
KGCK 241120Z 2412/2512 03009KT P6SM BKN110
     FM242100 13008KT P6SM SCT110 PROB30 2421/2501 4SM -TSRA
      BKN035CB
     FM250800 06006KT P6SM BKN035=

USA.gov is the U.S. government's official web portal to all federal, state and local government web resources and services.